hwlogo.jpg (8581 bytes)
Home Your Weather Products Services Weather On Your Site Contact
HW Version Logo
Weather Info
Your Weather (Options)
Canadian Weather
International Weather
Enter your " Place, State", US Zip Code or ICAO:  
Forecast Information Radar Information
Sudbury, Ontario, Canada  Lat: 46.60N, Lon: 80.77W
ICAO Used: CYSB
Current Conditions
Updated: 12:00 AM EST MON FEB 19 2018
Sun & Moon Information
Overcast
Overcast
Temp: -3°C
Humidity: 79%
Wind Speed: S 15 MPH G 23
Barometer: 1016 mb
Dewpoint: -6°C
Heat Index: -3°C
Wind Chill: -10°C
Civil Twilight: 6:51 AM EST Moon Phase:
Waxing Crescent Moon
Sunrise: 7:22 AM EST
Sunset: 5:50 PM EST
Civil Twilight: 6:21 PM EST
Forecast for Sudbury, ON:
(Forecast based on TAF for )
0942 PM EST SUN FEB 18 2018
  
OVERNIGHT MORNING
Freezing
Drizzle
Freezing
Drizzle
ZoneCast:
Dated: 0942 PM EST SUN FEB 18 2018
Overnight...Mostly cloudy and light snow with winds from the south at 14 mph and gusts up to 25 mph. Then a 30 percent chance to light freezing drizzle.

Morning...A percent chance to light freezing drizzle.

Original Encoded TAF:
Dated: 0942 PM EST SUN FEB 18 2018
2018/02/19 02:42
TAF CYSB 190140Z 1902/1914 18012G22KT 21/2SM -SN BKN009 
      TEMPO 1902/1908 P6SM -SN BKN025 OVC060 
     FM190800 18010KT 5SM -SN BKN009 OVC110 
      TEMPO 1908/1912 P6SM NSW BKN020 OVC110 PROB30 1908/1912 2SM -FZDZ BR 
     FM191200 19010KT 5SM -FZDZ BR OVC009 
      RMK NXT FCST BY 190800Z